LAXLOS ANGELES INTL
METARs for airports near LAX, sorted by distance:
N 0 nm 127' KLAX 221853Z 24005KT 3SM BR OVC004 14/13 A2993
E 3 nm 65' KHHR 221853Z 00000KT 8SM OVC012 16/13 A2993
NW 4 nm 169' KSMO 221851Z 25004KT 4SM BR OVC005 15/14 A2993
SE 9 nm 103' KTOA 221847Z 13005KT 5SM HZ OVC010 16/13 A2993
SE 14 nm 60' KLGB 221853Z 20005KT 9SM OVC008 16/13 A2993
N 15 nm 778' KBUR 221853Z 20006KT 2SM BR OVC008 17/13 A2992
N 16 nm 802' KVNY 221851Z 17007KT 3SM HZ OVC011 17/13 A2991
N 19 nm 1003' KWHP 221855Z 14005KT 2SM HZ SCT014 18/14 A2993
SE 20 nm 35' KSLI 221755Z 23007KT 4SM BR OVC008 15/14 A2990
NE 20 nm 295' KEMT 221845Z 00000KT 3SM HZ BKN015 18/13 A2992
E 21 nm 96' KFUL 221853Z 21005KT 7SM OVC009 16/14 A2992
SE 31 nm 55' KSNA 221853Z 22005KT 10SM OVC009 17/14 A2994
S 32 nm 1602' KAVX 221851Z 00000KT M1/4SM FG VV002 14/13 A2993
E 32 nm 1013' KPOC 221847Z 26005KT 2SM BR BKN012 19/14 A2993
W 36 nm 13' KNTD 221819Z 14005KT 5SM BR BKN007 OVC013 14/13 A2993
E 37 nm 1443' KCCB 221835Z 23008KT 3SM HZ CLR 19/14 A2992
NW 37 nm 76' KCMA 221846Z 28003KT 8SM OVC011 17/12 A2992
E 38 nm 650' KCNO 221853Z 31005KT 4SM HZ OVC011 17/15 A2992
E 40 nm 533' KAJO 221814Z 29006KT 5SM HZ OVC010 17/14 A2993
E 40 nm 944' KONT 221853Z 24007KT 3SM HZ FEW018 SCT200 20/12 A2991
W 42 nm 44' KOXR 221851Z 18004KT 5SM BR OVC007 15/13 A2993
N 44 nm 2542' KPMD 221853Z 24015G23KT 10SM CLR 28/05 A2988
E 47 nm 818' KRAL 221853Z VRB05KT 4SM HZ FEW010 19/14 A2991
N 48 nm 2350' KWJF 221756Z 27009G16KT 10SM CLR 28/03 A2988
S 55 nm 183' KNUC 221756Z 23006KT 5SM -DZ BR OVC007 14/13 A2995
E 57 nm 1536' KRIV 221755Z 00000KT 10SM CLR 21/15 A2990
E 59 nm 1159' KSBD 221851Z 28004KT 3SM HZ FEW250 22/11 A2991
NE 63 nm 2311' KEDW 221755Z 23006KT 90SM BKN250 28/01 A2986
NE 64 nm 2885' KVCV 221835Z 19010G17KT 10SM CLR 29/M06 A2991
SE 65 nm 77' KNFG 221755Z 23003KT 6SM BR OVC010 17/13 A2993
SW 67 nm 506' KNSI 221853Z 32008KT 7SM OVC006 14/11 A2992
N 68 nm 2801' KMHV 221820Z 22013KT 10SM CLR 27/M00 A2989
SE 68 nm 28' KOKB 221852Z 23006KT 4SM BR OVC008 16/14 A2993
E 70 nm 1514' KHMT 221835Z 23010G15KT 10SM CLR 22/14 A2991
N 71 nm 4001' KTSP 221855Z VRB06G12KT 10SM CLR 24/08 A2995
SE 74 nm 330' KCRQ 221853Z 20005KT 10SM OVC008 15/12 A2993
W 76 nm 13' KSBA 221853Z 19004KT 3SM BR OVC004 14/13 A2993
SE 90 nm 477' KNKX 221842Z 22004KT 3SM BR OVC010 14/13 A2993
NW 91 nm 674' KIZA 221835Z 23004KT 10SM OVC008 13/13 A2993
SE 92 nm 1394' KRNM 221853Z 32007KT 6SM HZ OVC008 17/14 A2993
SE 92 nm 427' KMYF 221853Z 23003KT 6SM HZ OVC009 16/13 A2994
SE 94 nm 16' KSAN 221851Z 23008KT 9SM OVC012 17/13 A2995
E 95 nm 476' KPSP 221853Z VRB05KT 10SM CLR 33/07 A2980
N 95 nm 509' KBFL 221854Z 23005KT 10SM CLR 28/11 A2980
SE 95 nm 26' KNZY 221852Z 26007KT 9SM FEW006 OVC014 16/15 A2993
NE 97 nm 1930' KDAG 221850Z 00000KT 10SM CLR 30/02 A2984
SE 98 nm 387' KSEE 221847Z 24006KT 5SM BR OVC014 17/14 A2994
TAFs for airports near LAX, sorted by distance:
N 0 nm 127' KLAX TAF
  AMD KLAX 221823Z 2218/2324 25007KT 2SM BR OVC007
  FM222000 26012KT P6SM OVC015
  FM230400 VRB03KT P6SM SCT008 OVC015
  FM230800 VRB03KT 5SM -DZ BR BKN008 OVC015
  FM231600 24006KT 6SM BR SCT008 OVC020
NW 4 nm 169' KSMO KSMO 221732Z 2218/2318 20005KT 4SM HZ OVC015
  FM222000 23010KT P6SM SCT015
  FM230200 22005KT P6SM OVC015
  FM230800 VRB03KT 5SM -DZ BR BKN008 OVC015
SE 14 nm 60' KLGB TAF KLGB 221732Z 2218/2318 17005KT 6SM HZ OVC010
  FM222000 20008KT P6SM FEW015
  FM230300 VRB03KT P6SM OVC015
  FM230800 VRB03KT 5SM -DZ BR BKN008 OVC015
N 15 nm 778' KBUR TAF KBUR 221732Z 2218/2318 13007KT 4SM HZ BKN015
  FM222000 17008KT P6SM SCT250
  FM230300 VRB03KT P6SM SKC
  FM230500 VRB03KT P6SM OVC012
  FM230900 VRB03KT 5SM -DZ BR BKN008 OVC015
N 16 nm 802' KVNY KVNY 221758Z 2218/2318 19006KT 2SM HZ OVC009
  FM222000 14008KT P6SM OVC015
  FM230200 VRB03KT P6SM SKC
  FM230500 VRB03KT P6SM OVC012
  FM230900 VRB03KT 5SM -DZ BR BKN008 OVC015
SE 20 nm 35' KSLI TAF
  AMD KSLI 221800Z 2218/2319 VRB06KT 8000 BR BKN010 BKN017 QNH2984INS
  BECMG 2219/2220 VRB06KT 8000 BR FEW017 QNH2984INS
  BECMG 2306/2307 VRB06KT 8000 BR BKN010 OVC017 QNH2992INS
  BECMG 2311/2312 VRB06KT 8000 BR BKN003 OVC010 QNH2992INS
  BECMG 2313/2314 VRB06KT 8000 BR SCT003 OVC010 QNH2994INS TX20/2223Z TN13/2214Z
SE 31 nm 55' KSNA KSNA 221723Z 2218/2318 VRB03KT P6SM BKN009
  FM221900 21010KT P6SM BKN012
  FM230300 19005KT P6SM OVC015
W 36 nm 13' KNTD TAF KNTD 2215/2315 VRB03KT 6000 BR OVC007 QNH2987INS
  FM221930 23009KT 9000 BR OVC012 QNH2993INS
  BECMG 2220/2222 23009KT 9000 BKN015 QNH2990INS
  TEMPO 2220/2223 9000 BR SCT015
  BECMG 2201/2303 VRB03KT 8000 BR OVC006 QNH2989INS TX16/2222Z TN12/2314Z FS30215
NW 37 nm 76' KCMA KCMA 221732Z 2218/2318 VRB03KT 5SM BR OVC006
  FM222000 23008KT P6SM SCT012
  FM230200 VRB03KT P6SM OVC012
  FM230800 VRB03KT 5SM -DZ BR BKN008 OVC015
E 40 nm 944' KONT KONT 221723Z 2218/2324 VRB03KT 2SM BR BKN008
  FM221900 25010KT 3SM HZ BKN010
  TEMPO 2219/2221 SCT010
  FM222100 25012G18KT P6SM SKC
  FM230400 25007KT P6SM FEW012
  FM230700 24005KT P6SM OVC012
  FM231900 25010KT 3SM HZ BKN010
W 42 nm 44' KOXR KOXR 221732Z 2218/2318 VRB03KT 5SM BR OVC006
  FM221900 26012KT P6SM OVC012
  FM230400 VRB03KT P6SM OVC012
  FM230800 VRB03KT 5SM -DZ BR BKN008 OVC015
N 44 nm 2542' KPMD TAF KPMD 221732Z 2218/2318 23010KT P6SM SKC
  FM222100 23018G26KT P6SM SKC
  FM230200 23012KT P6SM SKC
N 48 nm 2350' KWJF TAF KWJF 221732Z 2218/2318 22010KT P6SM SKC
  FM222100 22018G26KT P6SM SKC
  FM230300 25012KT P6SM SKC
S 55 nm 183' KNUC TAF KNUC 2215/2315 VRB06KT 8000 BR OVC005 QNH2985INS
  BECMG 2220/2222 28013KT 9999 BKN005 QNH2986INS
  BECMG 2305/2307 31007KT 8000 BR BKN010 QNH2992INS TX13/2300Z TN12/2314Z FS30208
E 57 nm 1536' KRIV TAF TAF
  AMD KRIV 221457Z 2214/2318 30004KT 1600 BR OVC001 QNH2986INS
  BECMG 2215/2216 VRB04KT 1600 BR BKN002 BKN300 QNH2987INS
  BECMG 2216/2217 VRB04KT 6000 HZ SCT003 BKN300 QNH2992INS
  BECMG 2217/2218 31006KT 9999 NSW FEW020 SCT300 QNH2989INS
  BECMG 2219/2220 32009KT 9999 FEW050 FEW300 510006 QNH2983INS
  TEMPO 2222/2301 32012G18KT
  BECMG 2301/2302 30006KT 9999 FEW010 QNH2985INS
  BECMG 2305/2306 28004KT 6000 BR BKN007 QNH2993INS
  BECMG 2308/2309 16004KT 4800 BR OVC005 510609 QNH2992INS
  TEMPO 2312/2315 3200 -DZ BR BKN004 OVC007
  BECMG 2314/2315 16004KT 4800 BR OVC007 510609 QNH2997INS
  BECMG 2316/2317 16004KT 6000 BR OVC010 510609 QNH3000INS TX26/2222Z TN10/2312Z
E 59 nm 1159' KSBD TAF KSBD 221723Z 2218/2318 VRB03KT 2SM BR BKN008
  FM221930 25010KT 3SM HZ BKN010
  FM222000 25011KT 6SM HZ SKC
  FM230400 25005KT P6SM SKC
  FM230900 VRB04KT 6SM BR OVC010
NE 63 nm 2311' KEDW TAF KEDW 221245Z 2213/2319 VRB06KT 9999 FEW250 510003 QNH2988INS
  BECMG 2217/2218 24012G20KT 9999 FEW250 510003 QNH2986INS
  BECMG 2220/2221 25015G25KT 9999 FEW250 520005 QNH2983INS
  BECMG 2306/2307 24012KT 9999 SKC QNH2984INS TX31/2221Z TN12/2314Z
SE 65 nm 77' KNFG TAF KNFG 2215/2315 VRB04KT 4800 BR OVC008 QNH2990INS
  FM221830 24006KT 9999 BKN010 QNH2986INS
  BECMG 2222/2300 SCT020 QNH2986INS
  TEMPO 2300/2303 24007G17KT
  FM230330 VRB04KT 9999 BKN010 QNH2989INS
  BECMG 2305/2307 4800 BR OVC005 QNH2993INS T20/2221Z T14/2307Z
SE 74 nm 330' KCRQ KCRQ 221723Z 2218/2318 VRB04KT P6SM OVC006
  FM222000 24008KT P6SM BKN010
  TEMPO 2220/2224 SCT015
  FM230200 21005KT P6SM OVC012
W 76 nm 13' KSBA TAF KSBA 221732Z 2218/2318 17006KT 4SM BR OVC007
  FM221900 16007KT P6SM BKN008
  FM222200 23010KT P6SM SCT010
  FM230200 VRB03KT P6SM OVC012
  FM230800 VRB03KT 5SM -DZ BR BKN008 OVC015
SE 90 nm 477' KNKX TAF TAF KNKX 2215/2315 23003KT 2400 BR OVC005 QNH2991INS
  BECMG 2218/2220 27008KT 9999 SCT012 QNH2987INS
  FM230130 25005KT 6000 BR BKN010 QNH2990INS
  BECMG 2305/2307 19003KT 3200 BR OVC004 QNH2994INS T18/2220Z T12/2314Z
SE 94 nm 16' KSAN KSAN 221723Z 2218/2324 23006KT P6SM BKN010
  FM221900 23009KT P6SM BKN015
  TEMPO 2220/2224 SCT015
  FM230200 21005KT P6SM BKN015
  FM231900 23009KT P6SM BKN015
E 95 nm 476' KPSP KPSP 221723Z 2218/2318 11006KT P6SM SKC
  FM222300 33015G25KT P6SM SKC
  FM230700 31005KT P6SM SKC
N 95 nm 509' KBFL TAF KBFL 221720Z 2218/2318 VRB05KT P6SM FEW200
  FM222000 31009KT P6SM SCT250
  FM230000 34012KT P6SM SCT250
SE 95 nm 26' KNZY TAF KNZY 2215/2315 VRB06KT 8000 BR BKN010 QNH2988INS
  FM222000 24009KT 9000 -DZ BKN015 QNH2988INS
  TEMPO 2221/2303 4800 BR OVC010
  BECMG 2303/2305 VRB06KT 9999 BKN020 QNH2990INS TX19/2221Z TN14/2314Z FS30142
NE 97 nm 1930' KDAG TAF KDAG 221720Z 2218/2318 VRB06KT P6SM SKC
  FM222200 24015G25KT P6SM FEW120
  FM230900 27012G20KT P6SM SKC
  FM231200 28010KT P6SM SKC

Shortcut to this page: http://wxbay.com.

Data may contain errors.